Portland, Arkansas
Current Conditions -  °F | °C
As of 3:53 PM on Monday 20 Oct 2014 (Local Time) from KLLQ Reporting Station
Clear Clear  
Wind Chill: 74°   Ceiling: Unl
Heat Index: 74°   Visibility: 10mi
Dew Point: 52°   Wind: 5mph
Humidity: 46%   Direction: 20°NNE
Pressure: 30.04"   Gusts: NA
Location:  33.24°N, 91.51°W
Report Text: KLLQ 202053Z AUTO 02004KT 10SM CLR 23/11 A3004 RMK AO2 SLP169 T02330111 56016
Loading
Personal Weather Stations






























Interactive Weather Map New forecast layout! Learn more

10-Day Weather Forecast

Advertisements
Track Severe Weather on mobile